Time;durP1;ratioP1;P1;durP2;ratioP2;P2;SDS_P1;SDS_P2;PMS_P1;PMS_P2;Temp;Humidity;BMP_temperature;BMP_pressure;BME280_temperature;BME280_humidity;BME280_pressure;Samples;Min_cycle;Max_cycle;Signal;HPM_P1;HPM_P2
2022/03/05 00:02:03;;;;;;;;;;;;;;;0.62;88.13;100688.06;5601926;31;34080;-86
2022/03/05 00:05:07;;;;;;;;;;;;;;;0.59;88.11;100686.44;5601581;31;35385;-86
2022/03/05 00:08:12;;;;;;;;;;;;;;;0.54;88.27;100680.59;5601302;31;34532;-86
2022/03/05 00:11:15;;;;;;;;;;;;;;;0.61;87.39;100684.63;5600566;31;34341;-86
2022/03/05 00:14:17;;;;;;;;;;;;;;;0.65;86.50;100681.88;5601001;31;34086;-86
2022/03/05 00:17:23;;;;;;;;;;;;;;;0.55;86.94;100674.47;5600243;31;34479;-86
2022/03/05 00:20:25;;;;;;;;;;;;;;;0.49;87.07;100685.16;5600378;31;34056;-86
2022/03/05 00:23:28;;;;;;;;;;;;;;;0.49;87.33;100673.88;5600432;31;34874;-87
2022/03/05 00:26:34;;;;;;;;;;;;;;;0.52;87.24;100673.75;5601603;31;34857;-86
2022/03/05 00:29:37;;;;;;;;;;;;;;;0.54;86.83;100671.94;5601018;31;35267;-86
2022/03/05 00:32:39;;;;;;;;;;;;;;;0.54;87.25;100672.78;5600816;31;34935;-86
2022/03/05 00:35:42;;;;;;;;;;;;;;;0.46;87.58;100670.50;5600871;31;35299;-86
2022/03/05 00:38:45;;;;;;;;;;;;;;;0.43;87.42;100675.00;5599866;31;34307;-86
2022/03/05 00:41:48;;;;;;;;;;;;;;;0.51;86.66;100672.91;5600111;31;34742;-86
2022/03/05 00:44:54;;;;;;;;;;;;;;;0.48;86.43;100665.25;5600311;31;35242;-86
2022/03/05 00:47:57;;;;;;;;;;;;;;;0.40;87.60;100662.12;5599675;31;35371;-86
2022/03/05 00:51:11;;;;;;;;;;;;;;;0.35;87.68;100656.28;5601761;31;34210;-86
2022/03/05 00:54:14;;;;;;;;;;;;;;;0.35;88.30;100659.72;5599946;31;34351;-86
2022/03/05 00:57:16;;;;;;;;;;;;;;;0.43;86.51;100654.19;5600445;31;34558;-86
2022/03/05 01:00:19;;;;;;;;;;;;;;;0.34;86.62;100650.22;5599652;31;34201;-86
2022/03/05 01:03:24;;;;;;;;;;;;;;;0.29;86.41;100655.62;5600833;31;35436;-87
2022/03/05 01:06:30;;;;;;;;;;;;;;;0.28;86.74;100653.94;5606002;31;35108;-86
2022/03/05 01:09:33;;;;;;;;;;;;;;;0.23;86.74;100648.09;5605785;31;35404;-86
2022/03/05 01:12:38;;;;;;;;;;;;;;;0.20;87.34;100655.19;5601091;31;34652;-86
2022/03/05 01:15:40;;;;;;;;;;;;;;;0.13;87.06;100657.22;5601128;31;34276;-86
2022/03/05 01:18:46;;;;;;;;;;;;;;;0.08;87.52;100649.59;5599834;31;34092;-86
2022/03/05 01:21:51;;;;;;;;;;;;;;;0.01;87.56;100652.53;5599316;31;36511;-86
2022/03/05 01:24:54;;;;;;;;;;;;;;;-0.08;87.83;100654.59;5600094;31;34597;-86
2022/03/05 01:27:56;;;;;;;;;;;;;;;-0.16;87.96;100657.53;5601290;31;34195;-86
2022/03/05 01:31:00;;;;;;;;;;;;;;;-0.22;88.16;100649.12;5601052;31;34698;-86
2022/03/05 01:34:05;;;;;;;;;;;;;;;-0.23;88.73;100650.03;5600615;31;33894;-86
2022/03/05 01:37:08;;;;;;;;;;;;;;;-0.26;88.64;100650.16;5599831;31;34163;-86
2022/03/05 01:40:11;;;;;;;;;;;;;;;-0.29;89.67;100650.31;5599696;31;34010;-86
2022/03/05 01:43:13;;;;;;;;;;;;;;;-0.35;89.63;100652.22;5599261;31;34117;-86
2022/03/05 01:46:26;;;;;;;;;;;;;;;-0.37;89.62;100658.41;5599056;31;35335;-86
2022/03/05 01:49:30;;;;;;;;;;;;;;;-0.27;89.59;100653.66;5599406;31;34045;-86
2022/03/05 01:52:33;;;;;;;;;;;;;;;-0.30;88.86;100661.59;5601327;31;34176;-86
2022/03/05 01:55:36;;;;;;;;;;;;;;;-0.37;90.51;100659.25;5599359;31;35447;-86
2022/03/05 01:58:39;;;;;;;;;;;;;;;-0.45;91.00;100661.31;5600167;31;34541;-86
2022/03/05 02:01:42;;;;;;;;;;;;;;;-0.51;90.31;100671.97;5600698;31;35579;-87
2022/03/05 02:04:45;;;;;;;;;;;;;;;-0.50;90.97;100671.03;5600686;31;35043;-86
2022/03/05 02:07:47;;;;;;;;;;;;;;;-0.23;90.29;100670.84;5600844;31;34305;-86
2022/03/05 02:10:52;;;;;;;;;;;;;;;-0.39;91.90;100674.03;5600836;31;34163;-86
2022/03/05 02:13:55;;;;;;;;;;;;;;;-0.52;92.82;100672.88;5600629;31;34396;-86
2022/03/05 02:16:57;;;;;;;;;;;;;;;-0.60;93.97;100670.56;5601039;31;34303;-86
2022/03/05 02:20:00;;;;;;;;;;;;;;;-0.71;94.59;100670.16;5601064;31;35236;-86
2022/03/05 02:23:03;;;;;;;;;;;;;;;-0.79;94.04;100668.66;5601437;31;35196;-86
2022/03/05 02:26:13;;;;;;;;;;;;;;;-0.74;93.62;100671.13;5597149;31;34585;-86
2022/03/05 02:29:15;;;;;;;;;;;;;;;-0.82;94.04;100667.94;5602956;31;35665;-86
2022/03/05 02:32:18;;;;;;;;;;;;;;;-0.89;94.55;100671.69;5603158;31;34419;-86
2022/03/05 02:35:23;;;;;;;;;;;;;;;-0.83;93.50;100674.91;5601511;31;35149;-86
2022/03/05 02:38:26;;;;;;;;;;;;;;;-0.85;93.20;100673.28;5601219;31;35367;-86
2022/03/05 02:41:29;;;;;;;;;;;;;;;-0.96;93.64;100674.50;5600921;31;34229;-86
2022/03/05 02:44:34;;;;;;;;;;;;;;;-1.02;94.19;100677.34;5601236;31;34509;-86
2022/03/05 02:47:37;;;;;;;;;;;;;;;-1.06;94.50;100674.94;5600887;31;34919;-86
2022/03/05 02:50:41;;;;;;;;;;;;;;;-1.04;94.44;100684.34;5601646;31;35814;-86
2022/03/05 02:53:46;;;;;;;;;;;;;;;-0.98;93.96;100681.53;5600890;31;34309;-86
2022/03/05 02:56:49;;;;;;;;;;;;;;;-1.00;93.67;100680.75;5600362;31;34481;-86
2022/03/05 02:59:52;;;;;;;;;;;;;;;-0.89;91.01;100677.72;5600051;31;35237;-86
2022/03/05 03:02:56;;;;;;;;;;;;;;;-0.87;91.32;100680.28;5601462;31;34337;-86
2022/03/05 03:06:04;;;;;;;;;;;;;;;-0.76;90.10;100675.53;5600963;31;34530;-86
2022/03/05 03:09:07;;;;;;;;;;;;;;;-0.51;87.42;100672.81;5603139;31;34638;-86
2022/03/05 03:12:09;;;;;;;;;;;;;;;-0.24;85.88;100669.16;5602673;31;35400;-86
2022/03/05 03:15:13;;;;;;;;;;;;;;;-0.44;86.41;100673.41;5603535;31;34211;-86
2022/03/05 03:18:17;;;;;;;;;;;;;;;-0.44;84.62;100673.41;5602787;31;35513;-86
2022/03/05 03:21:21;;;;;;;;;;;;;;;-0.43;83.38;100675.09;5602281;31;34042;-86
2022/03/05 03:24:23;;;;;;;;;;;;;;;-0.51;84.13;100671.97;5602052;31;34714;-86
2022/03/05 03:27:26;;;;;;;;;;;;;;;-0.50;85.19;100677.09;5602399;31;36735;-86
2022/03/05 03:30:29;;;;;;;;;;;;;;;-0.24;81.85;100671.75;5601956;31;34101;-86
2022/03/05 03:33:32;;;;;;;;;;;;;;;-0.36;83.74;100676.53;5602709;31;34438;-86
2022/03/05 03:36:34;;;;;;;;;;;;;;;-0.43;83.66;100677.69;5596967;31;35394;-86
2022/03/05 03:39:37;;;;;;;;;;;;;;;-0.48;83.91;100667.47;5602346;31;34621;-86
2022/03/05 03:42:40;;;;;;;;;;;;;;;-0.47;82.91;100668.31;5602808;31;34963;-86
2022/03/05 03:45:42;;;;;;;;;;;;;;;-0.47;83.70;100668.31;5602543;31;34850;-87
2022/03/05 03:48:45;;;;;;;;;;;;;;;-0.50;84.53;100673.63;5604206;31;34335;-86
2022/03/05 03:51:47;;;;;;;;;;;;;;;-0.55;85.23;100683.38;5607809;31;35279;-86
2022/03/05 03:54:50;;;;;;;;;;;;;;;-0.58;85.18;100680.91;5605681;31;35455;-86
2022/03/05 03:57:53;;;;;;;;;;;;;;;-0.56;85.16;100682.50;5601851;31;34287;-86
2022/03/05 04:00:55;;;;;;;;;;;;;;;-0.54;85.31;100677.28;5602564;31;34406;-87
2022/03/05 04:03:58;;;;;;;;;;;;;;;-0.32;82.11;100683.31;5603146;31;34577;-87
2022/03/05 04:10:27;;;;;;;;;;;;;;;-0.53;83.52;100678.97;5603533;31;35111;-86
2022/03/05 04:13:32;;;;;;;;;;;;;;;-0.59;85.24;100684.41;5604320;31;35310;-86
2022/03/05 04:16:41;;;;;;;;;;;;;;;-0.45;83.19;100682.09;5602581;31;34078;-86
2022/03/05 04:19:44;;;;;;;;;;;;;;;-0.48;83.38;100683.09;5601734;31;34785;-87
2022/03/05 04:22:49;;;;;;;;;;;;;;;-0.55;84.15;100686.81;5601880;31;34153;-86
2022/03/05 04:25:51;;;;;;;;;;;;;;;-0.60;85.04;100687.91;5602417;31;34668;-86
2022/03/05 04:28:54;;;;;;;;;;;;;;;-0.66;85.07;100689.84;5602783;31;34259;-86
2022/03/05 04:31:57;;;;;;;;;;;;;;;-0.69;84.75;100697.75;5603065;31;34540;-86
2022/03/05 04:35:02;;;;;;;;;;;;;;;-0.70;84.17;100693.47;5601660;31;34171;-86
2022/03/05 04:38:07;;;;;;;;;;;;;;;-0.68;84.62;100689.06;5601146;31;34548;-86
2022/03/05 04:41:10;;;;;;;;;;;;;;;-0.68;83.71;100696.84;5602659;31;34511;-86
2022/03/05 04:44:12;;;;;;;;;;;;;;;-0.66;84.41;100705.44;5602242;31;35138;-86
2022/03/05 04:47:17;;;;;;;;;;;;;;;-0.67;83.04;100706.34;5601983;31;34124;-86
2022/03/05 04:50:23;;;;;;;;;;;;;;;-0.58;82.78;100701.69;5602346;31;34777;-86
2022/03/05 04:53:26;;;;;;;;;;;;;;;-0.57;82.69;100704.25;5602172;31;35380;-86
2022/03/05 04:56:29;;;;;;;;;;;;;;;-0.55;82.75;100701.56;5601895;31;34398;-86
2022/03/05 04:59:32;;;;;;;;;;;;;;;-0.53;82.56;100704.97;5602359;31;34059;-86
2022/03/05 05:02:34;;;;;;;;;;;;;;;-0.30;79.70;100705.81;5602527;31;34388;-86
2022/03/05 05:05:37;;;;;;;;;;;;;;;-0.27;80.39;100703.06;5602553;31;34278;-87
2022/03/05 05:08:41;;;;;;;;;;;;;;;-0.35;80.34;100699.03;5602683;31;35137;-86
2022/03/05 05:11:44;;;;;;;;;;;;;;;-0.33;81.38;100707.63;5601207;31;33952;-87
2022/03/05 05:14:46;;;;;;;;;;;;;;;-0.35;80.89;100706.81;5601342;31;34604;-86
2022/03/05 05:17:51;;;;;;;;;;;;;;;-0.30;81.49;100708.41;5600721;31;34984;-86
2022/03/05 05:20:53;;;;;;;;;;;;;;;-0.34;81.05;100711.13;5601159;31;34375;-87
2022/03/05 05:23:56;;;;;;;;;;;;;;;-0.34;80.90;100705.91;5602021;31;33879;-86
2022/03/05 05:27:02;;;;;;;;;;;;;;;-0.33;81.31;100718.00;5602404;31;34537;-86
2022/03/05 05:30:06;;;;;;;;;;;;;;;-0.30;81.20;100719.63;5599710;31;34309;-86
2022/03/05 05:33:09;;;;;;;;;;;;;;;-0.19;80.34;100719.22;5600451;31;34300;-86
2022/03/05 05:36:22;;;;;;;;;;;;;;;-0.21;80.52;100727.06;5600196;31;34991;-87
2022/03/05 05:39:26;;;;;;;;;;;;;;;-0.20;81.03;100730.53;5601643;31;34957;-86
2022/03/05 05:42:29;;;;;;;;;;;;;;;-0.19;80.86;100737.44;5600209;31;35504;-87
2022/03/05 05:45:32;;;;;;;;;;;;;;;-0.15;81.86;100738.97;5600493;31;34939;-86
2022/03/05 05:48:34;;;;;;;;;;;;;;;-0.11;81.71;100730.16;5600936;31;33986;-86
2022/03/05 05:51:39;;;;;;;;;;;;;;;-0.07;78.62;100738.69;5601682;31;33996;-86
2022/03/05 05:54:44;;;;;;;;;;;;;;;0.01;78.46;100747.00;5603236;31;34496;-87
2022/03/05 05:57:50;;;;;;;;;;;;;;;0.11;79.33;100742.28;5600664;31;34857;-87
2022/03/05 06:00:52;;;;;;;;;;;;;;;0.36;76.30;100752.50;5599841;31;34296;-87
2022/03/05 06:03:59;;;;;;;;;;;;;;;0.52;75.25;100751.87;5600300;31;34530;-86
2022/03/05 06:07:03;;;;;;;;;;;;;;;0.66;75.54;100759.09;5600024;31;35447;-86
2022/03/05 06:10:09;;;;;;;;;;;;;;;0.55;76.20;100754.34;5599884;31;32961;-86
2022/03/05 06:13:11;;;;;;;;;;;;;;;0.48;77.42;100758.97;5599046;31;35416;-87
2022/03/05 06:16:14;;;;;;;;;;;;;;;0.59;76.74;100767.19;5600165;31;34158;-87
2022/03/05 06:19:17;;;;;;;;;;;;;;;0.70;76.61;100773.69;5600390;31;34280;-87
2022/03/05 06:22:23;;;;;;;;;;;;;;;0.67;76.86;100776.41;5601638;31;34533;-87
2022/03/05 06:25:27;;;;;;;;;;;;;;;0.74;76.41;100773.47;5600892;31;35017;-86
2022/03/05 06:28:29;;;;;;;;;;;;;;;0.74;77.23;100783.03;5600868;31;34449;-87
2022/03/05 06:31:32;;;;;;;;;;;;;;;0.92;78.06;100777.03;5603851;31;35508;-88
2022/03/05 06:34:36;;;;;;;;;;;;;;;0.96;79.08;100779.53;5603733;31;35633;-86
2022/03/05 06:37:39;;;;;;;;;;;;;;;0.93;79.84;100777.88;5602034;31;34990;-86
2022/03/05 06:40:42;;;;;;;;;;;;;;;0.96;79.19;100782.13;5599466;31;34617;-86
2022/03/05 06:43:44;;;;;;;;;;;;;;;0.88;78.84;100775.47;5599382;31;34292;-86
2022/03/05 06:46:47;;;;;;;;;;;;;;;0.80;77.34;100777.56;5599956;31;34517;-86
2022/03/05 06:49:49;;;;;;;;;;;;;;;0.94;77.58;100781.34;5605149;31;33843;-87
2022/03/05 06:52:52;;;;;;;;;;;;;;;0.94;75.38;100786.56;5614821;31;35485;-86
2022/03/05 06:55:59;;;;;;;;;;;;;;;1.01;77.23;100781.00;5621681;31;34602;-88
2022/03/05 06:59:03;;;;;;;;;;;;;;;1.14;73.83;100788.25;5620276;31;34576;-87
2022/03/05 07:02:09;;;;;;;;;;;;;;;1.17;73.62;100781.16;5617102;31;36661;-86
2022/03/05 07:05:12;;;;;;;;;;;;;;;1.22;73.59;100784.41;5617048;31;34630;-87
2022/03/05 07:08:16;;;;;;;;;;;;;;;1.26;74.04;100785.09;5618548;31;34407;-86
2022/03/05 07:11:18;;;;;;;;;;;;;;;1.47;71.64;100787.62;5618230;31;34167;-88
2022/03/05 07:14:21;;;;;;;;;;;;;;;1.58;72.16;100789.75;5616438;31;34368;-87
2022/03/05 07:17:24;;;;;;;;;;;;;;;1.62;71.37;100793.94;5618053;31;35441;-86
2022/03/05 07:20:30;;;;;;;;;;;;;;;1.65;72.52;100793.75;5618775;31;34447;-86
2022/03/05 07:23:33;;;;;;;;;;;;;;;1.64;72.30;100799.91;5616659;31;34554;-87
2022/03/05 07:26:38;;;;;;;;;;;;;;;1.67;73.29;100802.38;5617720;31;34595;-86
2022/03/05 07:29:42;;;;;;;;;;;;;;;1.73;71.59;100799.50;5619102;31;36559;-86
2022/03/05 07:32:46;;;;;;;;;;;;;;;1.63;72.26;100803.44;5618132;31;35022;-87
2022/03/05 07:35:52;;;;;;;;;;;;;;;1.76;72.22;100809.75;5616614;31;34175;-87
2022/03/05 07:38:54;;;;;;;;;;;;;;;1.63;72.47;100806.06;5617579;31;32881;-86
2022/03/05 07:42:02;;;;;;;;;;;;;;;1.70;72.99;100804.84;5618120;31;34446;-86
2022/03/05 07:45:05;;;;;;;;;;;;;;;2.01;72.24;100806.00;5616719;31;35338;-87
2022/03/05 07:48:08;;;;;;;;;;;;;;;2.07;72.71;100805.72;5618876;31;34515;-87
2022/03/05 07:51:11;;;;;;;;;;;;;;;2.16;72.68;100813.09;5617612;31;33895;-86
2022/03/05 07:54:14;;;;;;;;;;;;;;;2.25;72.76;100818.78;5617749;31;34150;-87
2022/03/05 07:57:17;;;;;;;;;;;;;;;2.38;71.78;100819.00;5619553;31;34385;-87
2022/03/05 08:00:20;;;;;;;;;;;;;;;2.35;72.21;100817.41;5620389;31;34551;-87
2022/03/05 08:03:26;;;;;;;;;;;;;;;2.51;71.76;100821.88;5617499;31;35216;-87
2022/03/05 08:06:29;;;;;;;;;;;;;;;2.56;72.28;100830.31;5618127;31;34480;-87
2022/03/05 08:09:32;;;;;;;;;;;;;;;2.49;72.07;100831.56;5617685;31;34531;-87
2022/03/05 08:12:38;;;;;;;;;;;;;;;2.30;72.76;100830.69;5617785;31;34703;-87
2022/03/05 08:15:40;;;;;;;;;;;;;;;2.53;72.06;100833.09;5618874;31;34750;-87
2022/03/05 08:18:45;;;;;;;;;;;;;;;2.70;71.38;100827.88;5607971;31;33915;-87
2022/03/05 08:21:51;;;;;;;;;;;;;;;2.80;71.37;100832.63;5596484;31;35480;-87
2022/03/05 08:24:54;;;;;;;;;;;;;;;2.70;71.97;100825.25;5596537;31;33752;-87
2022/03/05 08:27:57;;;;;;;;;;;;;;;2.66;71.14;100831.53;5596865;31;34389;-87
2022/03/05 08:31:00;;;;;;;;;;;;;;;2.85;70.32;100830.63;5597711;31;35018;-87
2022/03/05 08:34:03;;;;;;;;;;;;;;;2.68;71.11;100834.09;5598091;31;34993;-87
2022/03/05 08:37:06;;;;;;;;;;;;;;;3.00;69.94;100829.00;5599374;31;34853;-87
2022/03/05 08:40:10;;;;;;;;;;;;;;;3.30;69.06;100837.00;5598209;31;34388;-88
2022/03/05 08:43:12;;;;;;;;;;;;;;;3.48;69.86;100829.09;5598189;31;34452;-88
2022/03/05 08:46:18;;;;;;;;;;;;;;;3.51;68.84;100844.63;5597727;31;34050;-87
2022/03/05 08:49:20;;;;;;;;;;;;;;;3.62;68.71;100834.44;5596701;31;34591;-87
2022/03/05 08:52:25;;;;;;;;;;;;;;;4.24;65.77;100831.00;5596119;31;34227;-87
2022/03/05 08:55:28;;;;;;;;;;;;;;;4.46;64.66;100833.25;5596472;31;34499;-87
2022/03/05 08:58:31;;;;;;;;;;;;;;;3.92;64.45;100830.22;5596137;31;34519;-87
2022/03/05 09:01:34;;;;;;;;;;;;;;;4.75;62.75;100832.50;5595828;31;35550;-87
2022/03/05 09:04:37;;;;;;;;;;;;;;;4.77;61.21;100835.88;5595312;31;35080;-87
2022/03/05 09:07:40;;;;;;;;;;;;;;;4.93;60.54;100834.00;5594744;31;34615;-87
2022/03/05 09:10:43;;;;;;;;;;;;;;;4.61;62.29;100831.53;5594279;31;34233;-87
2022/03/05 09:13:45;;;;;;;;;;;;;;;5.33;59.55;100832.53;5592378;31;35054;-87
2022/03/05 09:16:48;;;;;;;;;;;;;;;5.50;56.95;100827.09;5592855;31;35096;-87
2022/03/05 09:19:51;;;;;;;;;;;;;;;5.88;56.76;100831.72;5597058;31;34148;-87
2022/03/05 09:22:56;;;;;;;;;;;;;;;6.03;54.96;100827.28;5598149;31;34535;-87
2022/03/05 09:26:03;;;;;;;;;;;;;;;6.46;52.39;100823.66;5598025;31;34976;-88
2022/03/05 09:29:06;;;;;;;;;;;;;;;6.33;53.55;100822.78;5594540;31;34486;-87
2022/03/05 09:32:10;;;;;;;;;;;;;;;7.18;50.30;100819.69;5593061;31;34781;-88
2022/03/05 09:35:15;;;;;;;;;;;;;;;7.34;46.60;100830.00;5593862;31;34695;-87
2022/03/05 09:38:18;;;;;;;;;;;;;;;6.43;47.19;100825.62;5593868;31;34895;-87
2022/03/05 09:41:21;;;;;;;;;;;;;;;6.00;47.96;100821.41;5607420;31;34682;-87
2022/03/05 09:44:24;;;;;;;;;;;;;;;6.25;48.83;100825.06;5616152;31;34239;-87
2022/03/05 09:47:27;;;;;;;;;;;;;;;6.37;47.51;100824.22;5613388;31;34626;-88
2022/03/05 09:50:33;;;;;;;;;;;;;;;6.55;45.57;100823.97;5613383;31;34114;-87
2022/03/05 09:53:36;;;;;;;;;;;;;;;6.47;46.47;100822.69;5612269;31;34733;-88
2022/03/05 09:56:40;;;;;;;;;;;;;;;6.68;46.67;100822.22;5612880;31;34562;-88
2022/03/05 09:59:43;;;;;;;;;;;;;;;6.64;47.07;100812.84;5607783;31;34467;-87
2022/03/05 10:02:48;;;;;;;;;;;;;;;6.45;48.50;100816.69;5610780;31;33358;-88
2022/03/05 10:06:12;;;;;;;;;;;;;;;6.05;49.53;100808.78;5616471;31;34634;-87
2022/03/05 10:09:21;;;;;;;;;;;;;;;5.71;48.54;100818.78;5602295;31;34373;-87
2022/03/05 10:12:28;;;;;;;;;;;;;;;5.34;49.73;100818.50;5608921;31;34496;-88
2022/03/05 10:15:31;;;;;;;;;;;;;;;5.35;49.85;100814.91;5606431;31;32753;-88
2022/03/05 10:18:39;;;;;;;;;;;;;;;5.15;50.14;100809.09;5612859;31;33165;-88
2022/03/05 10:21:55;;;;;;;;;;;;;;;5.20;50.57;100807.06;5600115;31;34656;-88
2022/03/05 10:24:57;;;;;;;;;;;;;;;5.48;50.15;100804.50;5593904;31;33853;-88
2022/03/05 10:28:05;;;;;;;;;;;;;;;6.11;48.76;100813.66;5610744;31;33788;-87
2022/03/05 10:31:10;;;;;;;;;;;;;;;5.78;48.56;100807.00;5595242;31;34163;-87
2022/03/05 10:34:12;;;;;;;;;;;;;;;6.09;46.56;100799.78;5593240;31;34443;-88
2022/03/05 10:37:16;;;;;;;;;;;;;;;5.74;48.69;100809.91;5609723;31;34417;-87
2022/03/05 10:40:29;;;;;;;;;;;;;;;5.24;50.31;100803.28;5595684;31;35128;-87
2022/03/05 10:43:33;;;;;;;;;;;;;;;5.37;51.26;100802.53;5595330;31;34813;-88
2022/03/05 10:46:37;;;;;;;;;;;;;;;5.50;49.62;100803.47;5604776;31;34018;-87
2022/03/05 10:49:40;;;;;;;;;;;;;;;5.99;48.51;100802.16;5591310;31;35266;-88
2022/03/05 10:52:54;;;;;;;;;;;;;;;6.62;46.27;100804.19;5592207;31;33571;-87
2022/03/05 10:55:56;;;;;;;;;;;;;;;6.76;46.24;100803.25;5591873;31;34394;-88
2022/03/05 10:59:00;;;;;;;;;;;;;;;7.41;43.97;100798.81;5592441;31;34529;-88
2022/03/05 11:02:03;;;;;;;;;;;;;;;7.32;45.21;100800.31;5592890;31;35233;-88
2022/03/05 11:05:06;;;;;;;;;;;;;;;6.87;45.34;100808.62;5593632;31;34489;-87
2022/03/05 11:08:16;;;;;;;;;;;;;;;6.94;45.28;100793.28;5592848;31;34405;-88
2022/03/05 11:11:19;;;;;;;;;;;;;;;6.45;46.81;100800.06;5591533;31;34479;-88
2022/03/05 11:14:25;;;;;;;;;;;;;;;6.90;46.44;100786.56;5591879;31;34508;-88
2022/03/05 11:17:30;;;;;;;;;;;;;;;6.85;44.83;100780.75;5592237;31;34232;-87
2022/03/05 11:20:33;;;;;;;;;;;;;;;6.80;45.23;100778.44;5592431;31;34098;-87
2022/03/05 11:23:36;;;;;;;;;;;;;;;6.73;44.87;100792.97;5593677;31;35054;-87
2022/03/05 11:26:40;;;;;;;;;;;;;;;5.54;45.76;100778.72;5593426;31;34165;-88
2022/03/05 11:30:07;;;;;;;;;;;;;;;5.32;47.38;100781.00;5593347;31;34316;-87
2022/03/05 11:33:11;;;;;;;;;;;;;;;5.55;46.79;100785.66;5596765;31;34167;-88
2022/03/05 11:36:31;;;;;;;;;;;;;;;5.85;47.25;100766.25;5595269;31;33932;-87
2022/03/05 11:39:37;;;;;;;;;;;;;;;5.95;48.71;100770.91;5594130;31;34376;-87
2022/03/05 11:42:39;;;;;;;;;;;;;;;6.54;46.91;100767.91;5594662;31;34540;-87
2022/03/05 11:45:47;;;;;;;;;;;;;;;6.68;46.31;100764.38;5596128;31;34903;-88
2022/03/05 11:49:03;;;;;;;;;;;;;;;6.79;45.43;100756.59;5594002;31;34296;-88
2022/03/05 11:52:06;;;;;;;;;;;;;;;7.29;45.73;100763.66;5593166;31;34296;-88
2022/03/05 11:55:13;;;;;;;;;;;;;;;7.73;44.21;100762.25;5593557;31;35277;-87
2022/03/05 11:58:17;;;;;;;;;;;;;;;7.10;44.04;100749.19;5593484;31;34641;-88
2022/03/05 12:01:41;;;;;;;;;;;;;;;7.13;45.29;100748.13;5592971;31;34736;-88
2022/03/05 12:04:46;;;;;;;;;;;;;;;7.05;43.36;100756.53;5593508;31;34059;-88
2022/03/05 12:07:53;;;;;;;;;;;;;;;7.14;43.25;100752.44;5595016;31;34482;-87
2022/03/05 12:11:11;;;;;;;;;;;;;;;7.12;44.46;100741.19;5594228;31;34216;-88
2022/03/05 12:14:14;;;;;;;;;;;;;;;7.42;42.91;100743.41;5594666;31;35429;-88
2022/03/05 12:17:22;;;;;;;;;;;;;;;7.38;42.45;100741.94;5607942;31;34131;-87
2022/03/05 12:20:27;;;;;;;;;;;;;;;6.62;41.36;100743.72;5617722;31;34381;-88
2022/03/05 12:23:32;;;;;;;;;;;;;;;6.10;41.89;100738.44;5608617;31;34389;-88
2022/03/05 12:26:36;;;;;;;;;;;;;;;6.47;42.24;100735.94;5613445;31;34791;-88
2022/03/05 12:29:49;;;;;;;;;;;;;;;6.48;41.64;100740.25;5613372;31;35262;-88
2022/03/05 12:32:52;;;;;;;;;;;;;;;6.91;41.58;100728.56;5613907;31;34130;-88
2022/03/05 12:35:57;;;;;;;;;;;;;;;7.07;42.80;100728.34;5613700;31;34217;-88
2022/03/05 12:39:01;;;;;;;;;;;;;;;7.18;41.47;100734.63;5612191;31;34568;-88
2022/03/05 12:42:04;;;;;;;;;;;;;;;6.99;42.07;100735.09;5611883;31;33034;-88
2022/03/05 12:45:07;;;;;;;;;;;;;;;6.76;41.94;100730.50;5614310;31;34710;-88
2022/03/05 12:48:15;;;;;;;;;;;;;;;6.08;42.92;100729.78;5613751;31;34727;-87
2022/03/05 12:51:20;;;;;;;;;;;;;;;6.83;42.23;100725.66;5613829;31;33744;-88
2022/03/05 12:54:23;;;;;;;;;;;;;;;6.37;42.58;100723.53;5617524;31;34490;-87
2022/03/05 12:57:25;;;;;;;;;;;;;;;5.75;43.23;100723.16;5615048;31;34648;-88
2022/03/05 13:00:29;;;;;;;;;;;;;;;5.44;44.69;100730.38;5615801;31;33930;-88
2022/03/05 13:03:33;;;;;;;;;;;;;;;5.53;44.76;100716.66;5618589;31;35583;-87
2022/03/05 13:06:35;;;;;;;;;;;;;;;5.62;44.07;100728.37;5617174;31;34862;-87
2022/03/05 13:09:40;;;;;;;;;;;;;;;5.45;44.37;100729.44;5615319;31;34068;-88
2022/03/05 13:12:53;;;;;;;;;;;;;;;5.24;45.34;100724.59;5614613;31;34154;-88
2022/03/05 13:15:56;;;;;;;;;;;;;;;5.08;45.43;100726.50;5614987;31;33924;-88
2022/03/05 13:19:02;;;;;;;;;;;;;;;5.47;44.34;100731.97;5614131;31;34502;-88
2022/03/05 13:22:07;;;;;;;;;;;;;;;5.33;45.15;100732.84;5614856;31;34761;-87
2022/03/05 13:25:11;;;;;;;;;;;;;;;5.52;44.70;100727.25;5614704;31;34523;-88
2022/03/05 13:28:17;;;;;;;;;;;;;;;5.66;44.30;100729.84;5615608;31;34467;-87
2022/03/05 13:31:26;;;;;;;;;;;;;;;5.60;44.54;100721.50;5617617;31;35432;-87
2022/03/05 13:34:35;;;;;;;;;;;;;;;5.47;45.24;100724.91;5613274;31;34221;-88
2022/03/05 13:37:41;;;;;;;;;;;;;;;5.80;45.06;100725.47;5612557;31;34600;-87
2022/03/05 13:40:44;;;;;;;;;;;;;;;5.79;45.75;100719.41;5613221;31;33460;-88
2022/03/05 13:43:48;;;;;;;;;;;;;;;5.79;44.34;100719.41;5613578;31;33635;-87
2022/03/05 13:46:53;;;;;;;;;;;;;;;5.99;45.22;100712.00;5614187;31;34405;-87
2022/03/05 13:50:04;;;;;;;;;;;;;;;6.04;44.38;100720.44;5613830;31;34716;-87
2022/03/05 13:53:08;;;;;;;;;;;;;;;6.03;44.85;100713.47;5612202;31;34245;-88
2022/03/05 13:56:13;;;;;;;;;;;;;;;6.16;44.40;100716.97;5612488;31;34408;-87
2022/03/05 13:59:21;;;;;;;;;;;;;;;6.17;44.34;100717.84;5613278;31;34417;-87
2022/03/05 14:02:31;;;;;;;;;;;;;;;5.79;44.73;100716.78;5600229;31;35012;-87
2022/03/05 14:05:36;;;;;;;;;;;;;;;5.71;46.71;100713.78;5596813;31;33292;-87
2022/03/05 14:08:46;;;;;;;;;;;;;;;5.68;45.41;100716.62;5593403;31;34477;-87
2022/03/05 14:12:01;;;;;;;;;;;;;;;5.48;45.34;100716.09;5592681;31;33752;-86
2022/03/05 14:15:08;;;;;;;;;;;;;;;5.39;45.51;100716.69;5594333;31;34474;-87
2022/03/05 14:18:11;;;;;;;;;;;;;;;5.29;46.15;100711.22;5596046;31;34236;-87
2022/03/05 14:21:17;;;;;;;;;;;;;;;5.24;45.85;100715.91;5593544;31;34471;-88
2022/03/05 14:24:31;;;;;;;;;;;;;;;5.02;46.43;100714.63;5594479;31;33810;-87
2022/03/05 14:27:34;;;;;;;;;;;;;;;5.10;45.84;100716.75;5598627;31;34735;-87
2022/03/05 14:30:37;;;;;;;;;;;;;;;5.17;46.22;100702.31;5593783;31;34492;-87
2022/03/05 14:33:42;;;;;;;;;;;;;;;5.20;47.23;100706.53;5593730;31;34500;-87
2022/03/05 14:36:51;;;;;;;;;;;;;;;5.29;44.92;100702.47;5595339;31;34096;-87
2022/03/05 14:39:58;;;;;;;;;;;;;;;5.32;45.49;100700.50;5594378;31;34771;-87
2022/03/05 14:43:02;;;;;;;;;;;;;;;5.33;46.11;100698.75;5593198;31;34043;-87
2022/03/05 14:46:14;;;;;;;;;;;;;;;5.39;45.41;100695.72;5592483;31;34274;-87
2022/03/05 14:49:19;;;;;;;;;;;;;;;5.26;46.16;100699.09;5601982;31;33967;-86
2022/03/05 14:52:22;;;;;;;;;;;;;;;5.24;46.07;100708.84;5596016;31;34403;-86
2022/03/05 14:55:26;;;;;;;;;;;;;;;5.18;46.68;100697.94;5594560;31;34079;-87
2022/03/05 14:58:38;;;;;;;;;;;;;;;5.08;46.91;100697.66;5602734;31;33777;-87
2022/03/05 15:01:41;;;;;;;;;;;;;;;5.11;45.88;100705.34;5608792;31;34085;-87
2022/03/05 15:04:44;;;;;;;;;;;;;;;5.09;46.20;100701.97;5606874;31;35020;-86
2022/03/05 15:07:50;;;;;;;;;;;;;;;4.84;47.24;100695.63;5615721;31;34612;-87
2022/03/05 15:10:53;;;;;;;;;;;;;;;4.74;48.06;100697.13;5602915;31;34594;-86
2022/03/05 15:14:01;;;;;;;;;;;;;;;4.85;46.89;100692.06;5602353;31;34397;-86
2022/03/05 15:17:05;;;;;;;;;;;;;;;4.60;49.32;100698.78;5597105;31;34462;-86
2022/03/05 15:20:10;;;;;;;;;;;;;;;4.52;48.57;100694.94;5600718;31;34249;-87
2022/03/05 15:23:13;;;;;;;;;;;;;;;4.66;47.98;100696.75;5614160;31;35038;-87
2022/03/05 15:26:20;;;;;;;;;;;;;;;4.55;49.83;100698.25;5613849;31;33967;-87
2022/03/05 15:29:26;;;;;;;;;;;;;;;4.45;49.27;100699.72;5615928;31;34937;-87
2022/03/05 15:32:29;;;;;;;;;;;;;;;4.48;49.22;100699.53;5603044;31;34853;-86
2022/03/05 15:35:33;;;;;;;;;;;;;;;4.40;48.93;100707.00;5595485;31;33989;-87
2022/03/05 15:38:38;;;;;;;;;;;;;;;4.52;48.58;100701.03;5597803;31;34516;-86
2022/03/05 15:41:41;;;;;;;;;;;;;;;4.31;49.72;100703.16;5596905;31;34202;-87
2022/03/05 15:44:46;;;;;;;;;;;;;;;4.13;50.72;100705.06;5596989;31;34460;-86
2022/03/05 15:47:51;;;;;;;;;;;;;;;4.04;51.51;100708.25;5616176;31;33936;-86
2022/03/05 15:50:57;;;;;;;;;;;;;;;4.00;51.99;100707.56;5615467;31;34324;-86
2022/03/05 15:53:59;;;;;;;;;;;;;;;3.95;53.00;100707.84;5616365;31;34270;-86
2022/03/05 15:57:02;;;;;;;;;;;;;;;3.93;53.08;100709.69;5617461;31;34560;-86
2022/03/05 16:00:07;;;;;;;;;;;;;;;3.91;52.47;100719.41;5604558;31;34956;-86